Time;durP1;ratioP1;P1;durP2;ratioP2;P2;SDS_P1;SDS_P2;PMS_P1;PMS_P2;Temp;Humidity;BMP_temperature;BMP_pressure;BME280_temperature;BME280_humidity;BME280_pressure;Samples;Min_cycle;Max_cycle;Signal;HPM_P1;HPM_P2
2021/11/12 00:04:26;;;;;;;8.60;6.72;;;13.60;80.50;;;;;;5137228;27;20134;-60
2021/11/12 00:14:54;;;;;;;7.90;6.22;;;13.60;80.50;;;;;;5138427;27;20058;-55
2021/11/12 00:17:23;;;;;;;8.57;6.90;;;13.60;80.50;;;;;;5157257;27;20125;-52
2021/11/12 00:19:50;;;;;;;8.07;6.32;;;13.60;80.50;;;;;;5156854;27;20099;-56
2021/11/12 00:22:20;;;;;;;8.00;6.65;;;13.60;80.50;;;;;;5156852;27;20043;-56
2021/11/12 00:24:45;;;;;;;9.85;7.47;;;13.60;80.40;;;;;;5157316;27;20051;-57
2021/11/12 00:27:11;;;;;;;8.95;7.30;;;13.60;80.50;;;;;;5157374;27;20096;-56
2021/11/12 00:30:05;;;;;;;9.80;7.18;;;13.60;80.50;;;;;;5155510;27;20053;-54
2021/11/12 00:35:02;;;;;;;8.60;7.28;;;13.70;80.60;;;;;;5157074;27;20090;-55
2021/11/12 00:40:34;;;;;;;8.85;7.10;;;13.60;80.40;;;;;;5155306;27;20387;-54
2021/11/12 00:45:29;;;;;;;9.02;7.18;;;13.70;80.50;;;;;;5157025;27;20569;-55
2021/11/12 00:50:34;;;;;;;8.25;6.80;;;13.70;80.50;;;;;;5155368;27;20079;-55
2021/11/12 00:55:28;;;;;;;11.40;7.97;;;13.60;80.40;;;;;;5156867;27;20061;-56
2021/11/12 00:57:55;;;;;;;7.35;6.05;;;13.60;80.40;;;;;;5155780;27;20394;-57
2021/11/12 01:00:23;;;;;;;7.88;6.35;;;13.70;80.50;;;;;;5155097;27;20459;-57
2021/11/12 01:02:48;;;;;;;7.85;6.95;;;13.60;80.40;;;;;;5156943;27;20046;-55
2021/11/12 01:05:15;;;;;;;9.88;6.70;;;13.60;80.40;;;;;;5156724;27;20042;-53
2021/11/12 01:07:41;;;;;;;8.90;7.60;;;13.60;80.40;;;;;;5137876;27;20463;-55
2021/11/12 01:10:10;;;;;;;8.40;6.68;;;13.70;80.40;;;;;;5137435;27;20046;-55
2021/11/12 01:12:37;;;;;;;8.40;6.47;;;13.60;80.40;;;;;;5136242;27;20039;-55
2021/11/12 01:15:06;;;;;;;9.18;7.00;;;13.60;80.40;;;;;;5156548;27;20047;-57
2021/11/12 01:17:31;;;;;;;8.32;6.40;;;13.60;80.40;;;;;;5137889;27;20043;-55
2021/11/12 01:19:57;;;;;;;7.53;6.60;;;13.70;80.40;;;;;;5156558;27;20053;-55
2021/11/12 01:22:23;;;;;;;9.13;6.97;;;13.60;80.40;;;;;;5135470;27;20126;-55
2021/11/12 01:24:49;;;;;;;8.63;6.68;;;13.60;80.30;;;;;;5155700;27;20091;-55
2021/11/12 01:27:15;;;;;;;9.07;7.10;;;13.60;80.40;;;;;;5156306;27;20494;-54
2021/11/12 01:29:41;;;;;;;7.85;6.63;;;13.70;80.40;;;;;;5156212;27;20073;-54
2021/11/12 01:32:21;;;;;;;8.20;6.72;;;13.70;80.40;;;;;;5154444;27;20125;-65
2021/11/12 01:34:49;;;;;;;8.57;6.82;;;13.60;80.30;;;;;;5156480;27;20146;-57
2021/11/12 01:37:18;;;;;;;9.77;6.97;;;13.70;80.40;;;;;;5156367;27;20479;-59
2021/11/12 01:39:49;;;;;;;9.70;6.97;;;13.60;80.40;;;;;;5156194;27;20072;-57
2021/11/12 01:42:17;;;;;;;8.25;6.40;;;13.60;80.30;;;;;;5155946;27;20043;-63
2021/11/12 01:44:47;;;;;;;8.68;6.82;;;13.60;80.30;;;;;;5154168;27;20054;-71
2021/11/12 01:47:26;;;;;;;8.30;6.13;;;13.70;80.40;;;;;;5156097;27;20042;-55
2021/11/12 01:49:54;;;;;;;8.93;6.70;;;13.60;80.30;;;;;;5155934;27;20125;-54
2021/11/12 01:52:25;;;;;;;8.63;6.32;;;13.60;80.30;;;;;;5156075;27;20051;-55
2021/11/12 01:59:50;;;;;;;7.53;6.18;;;13.60;80.30;;;;;;5155939;27;20065;-56
2021/11/12 02:02:16;;;;;;;9.20;7.18;;;13.60;80.30;;;;;;5155690;27;20035;-53
2021/11/12 02:04:42;;;;;;;7.70;6.38;;;13.60;80.30;;;;;;5153806;27;20039;-55
2021/11/12 02:07:11;;;;;;;9.57;6.75;;;13.70;80.40;;;;;;5155400;27;20047;-61
2021/11/12 02:09:37;;;;;;;8.35;6.47;;;13.60;80.30;;;;;;5155455;27;20046;-60
2021/11/12 02:12:16;;;;;;;7.55;6.15;;;13.60;80.30;;;;;;5154883;27;20042;-61
2021/11/12 02:14:44;;;;;;;8.95;6.72;;;13.60;80.30;;;;;;5153381;27;20051;-51
2021/11/12 02:17:18;;;;;;;8.15;7.00;;;13.60;80.30;;;;;;5155479;27;20054;-65
2021/11/12 02:19:53;;;;;;;9.30;6.95;;;13.60;80.30;;;;;;5136647;27;20043;-61
2021/11/12 02:22:20;;;;;;;8.18;7.00;;;13.60;80.30;;;;;;5155091;27;20057;-52
2021/11/12 02:24:54;;;;;;;8.00;6.97;;;13.70;80.30;;;;;;5154885;27;20042;-55
2021/11/12 02:27:22;;;;;;;10.55;7.40;;;13.60;80.30;;;;;;5153147;27;20506;-55
2021/11/12 02:29:54;;;;;;;8.75;6.32;;;13.60;80.30;;;;;;5136113;27;20501;-56
2021/11/12 02:32:28;;;;;;;8.25;6.70;;;13.60;80.30;;;;;;5155055;27;20126;-56
2021/11/12 02:34:58;;;;;;;8.70;7.20;;;13.60;80.30;;;;;;5155079;27;20043;-55
2021/11/12 02:37:26;;;;;;;7.95;6.75;;;13.70;80.30;;;;;;5153218;27;20402;-56
2021/11/12 02:39:53;;;;;;;8.50;7.13;;;13.60;80.30;;;;;;5135458;27;20038;-54
2021/11/12 02:42:21;;;;;;;7.18;6.47;;;13.70;80.40;;;;;;5153910;27;20049;-62
2021/11/12 02:44:47;;;;;;;8.32;6.75;;;13.60;80.30;;;;;;5154355;27;20135;-58
2021/11/12 02:47:17;;;;;;;8.77;5.95;;;13.60;80.30;;;;;;5153196;27;20137;-54
2021/11/12 02:49:44;;;;;;;7.97;6.47;;;13.60;80.30;;;;;;5154798;27;20034;-50
2021/11/12 02:52:10;;;;;;;7.07;5.75;;;13.60;80.30;;;;;;5154504;27;20486;-57
2021/11/12 02:54:38;;;;;;;8.35;6.80;;;13.60;80.30;;;;;;5154785;27;20062;-56
2021/11/12 02:57:05;;;;;;;7.75;6.22;;;13.60;80.30;;;;;;5153777;27;20043;-53
2021/11/12 02:59:32;;;;;;;9.40;6.88;;;13.60;80.30;;;;;;5153936;27;20360;-56
2021/11/12 03:02:03;;;;;;;7.20;6.07;;;13.60;80.30;;;;;;5154353;27;20470;-56
2021/11/12 03:04:29;;;;;;;8.48;6.80;;;13.60;80.30;;;;;;5154239;27;20402;-64
2021/11/12 03:06:57;;;;;;;7.57;6.05;;;13.60;80.30;;;;;;5154569;27;20038;-56
2021/11/12 03:09:28;;;;;;;9.38;6.85;;;13.60;80.30;;;;;;5152490;27;20046;-54
2021/11/12 03:11:56;;;;;;;8.75;7.15;;;13.60;80.30;;;;;;5154269;27;20390;-56
2021/11/12 03:14:22;;;;;;;7.20;6.28;;;13.60;80.30;;;;;;5153984;27;20062;-54
2021/11/12 03:16:49;;;;;;;8.02;6.03;;;13.60;80.30;;;;;;5153842;27;20043;-56
2021/11/12 03:19:17;;;;;;;9.40;6.57;;;13.60;80.30;;;;;;5152351;27;20410;-54
2021/11/12 03:22:03;;;;;;;7.40;6.47;;;13.60;80.30;;;;;;5153978;27;20039;-57
2021/11/12 03:24:33;;;;;;;;;;;13.60;80.30;;;;;;5154466;27;20042;-56
2021/11/12 04:00:16;;;;;;;7.50;6.63;;;13.60;80.30;;;;;;5049278;28;20057;-55
2021/11/12 04:40:41;;;;;;;7.07;5.93;;;13.60;80.30;;;;;;5157462;27;20042;-56
2021/11/12 05:56:33;;;;;;;8.13;6.30;;;13.60;80.30;;;;;;5072622;28;20051;-56
2021/11/12 05:58:59;;;;;;;7.80;6.32;;;13.50;80.20;;;;;;5128699;27;20043;-57
2021/11/12 06:01:25;;;;;;;8.65;7.00;;;13.50;80.20;;;;;;5135056;27;20047;-56
2021/11/12 06:03:51;;;;;;;8.48;6.25;;;13.60;80.30;;;;;;5135150;27;20075;-69
2021/11/12 06:06:16;;;;;;;8.10;6.20;;;13.60;80.20;;;;;;5134923;27;20479;-60
2021/11/12 06:08:42;;;;;;;7.75;6.93;;;13.60;80.20;;;;;;5135702;27;20035;-58
2021/11/12 06:11:08;;;;;;;7.95;5.78;;;13.60;80.90;;;;;;5116268;27;20122;-58
2021/11/12 06:13:34;;;;;;;7.65;5.90;;;13.50;80.10;;;;;;5134491;27;20049;-57
2021/11/12 06:16:00;;;;;;;8.15;6.68;;;13.60;80.20;;;;;;5134822;27;20050;-56
2021/11/12 06:18:26;;;;;;;8.50;6.53;;;13.60;80.20;;;;;;5117491;27;20051;-56
2021/11/12 06:20:51;;;;;;;7.38;6.43;;;13.60;80.20;;;;;;5134339;27;20074;-56
2021/11/12 06:23:17;;;;;;;7.22;6.47;;;13.60;80.20;;;;;;5134655;27;20054;-62
2021/11/12 06:25:43;;;;;;;8.85;6.35;;;13.60;80.20;;;;;;5134387;27;20118;-57
2021/11/12 06:28:08;;;;;;;8.43;6.50;;;13.50;80.10;;;;;;5135916;27;20038;-56
2021/11/12 06:30:34;;;;;;;7.18;6.00;;;13.60;80.20;;;;;;5115718;27;20054;-55
2021/11/12 06:33:00;;;;;;;8.80;6.60;;;13.60;80.20;;;;;;5134388;27;20047;-64
2021/11/12 06:35:27;;;;;;;7.28;6.40;;;13.60;80.20;;;;;;5134344;27;20395;-59
2021/11/12 06:37:53;;;;;;;7.75;6.32;;;13.60;80.20;;;;;;5115747;27;20249;-61
2021/11/12 06:40:20;;;;;;;7.90;6.00;;;13.60;80.20;;;;;;5135517;27;20475;-57
2021/11/12 06:43:36;;;;;;;7.57;6.30;;;13.60;80.20;;;;;;5133909;27;20054;-72
2021/11/12 06:51:09;;;;;;;7.10;6.38;;;13.60;80.20;;;;;;5135329;27;20047;-61
2021/11/12 06:53:35;;;;;;;9.30;6.75;;;13.60;80.20;;;;;;5133542;27;20047;-62
2021/11/12 06:56:02;;;;;;;7.80;6.72;;;13.60;80.20;;;;;;5132385;27;20083;-64
2021/11/12 06:58:29;;;;;;;8.30;6.40;;;13.60;80.20;;;;;;5114420;27;20046;-68
2021/11/12 07:00:56;;;;;;;8.38;6.93;;;13.60;80.20;;;;;;5134314;27;20045;-56
2021/11/12 07:03:23;;;;;;;7.35;6.60;;;13.60;80.20;;;;;;5133418;27;20394;-67
2021/11/12 07:05:50;;;;;;;8.52;6.28;;;13.60;80.20;;;;;;5133927;27;20039;-63
2021/11/12 07:08:16;;;;;;;9.32;6.68;;;13.60;80.20;;;;;;5133859;27;20049;-64
2021/11/12 07:10:42;;;;;;;8.55;6.80;;;13.60;80.10;;;;;;5134751;27;20043;-63
2021/11/12 07:13:08;;;;;;;7.50;6.30;;;13.60;80.10;;;;;;5133108;27;20479;-67
2021/11/12 07:15:35;;;;;;;7.80;6.50;;;13.60;80.10;;;;;;5133322;27;20051;-73
2021/11/12 07:18:01;;;;;;;7.22;6.20;;;13.60;80.10;;;;;;5133453;27;20112;-69
2021/11/12 07:20:27;;;;;;;8.15;6.75;;;13.60;80.10;;;;;;5133787;27;20402;-69
2021/11/12 07:22:53;;;;;;;9.25;7.38;;;13.60;80.10;;;;;;5134753;27;20043;-55
2021/11/12 07:25:19;;;;;;;8.13;7.30;;;13.60;80.10;;;;;;5133439;27;20115;-56
2021/11/12 07:27:47;;;;;;;8.32;7.05;;;13.60;80.00;;;;;;5133405;27;20039;-57
2021/11/12 07:30:15;;;;;;;6.90;6.13;;;13.50;80.00;;;;;;5133300;28;20118;-55
2021/11/12 07:32:45;;;;;;;7.53;6.50;;;13.60;80.10;;;;;;5134765;27;20047;-56
2021/11/12 07:35:13;;;;;;;8.35;6.93;;;13.60;80.10;;;;;;5133477;28;20410;-56
2021/11/12 07:37:39;;;;;;;8.32;6.70;;;13.50;80.00;;;;;;5133637;28;20039;-56
2021/11/12 07:40:08;;;;;;;8.85;6.72;;;13.60;80.10;;;;;;5133363;28;20137;-53
2021/11/12 07:43:22;;;;;;;9.20;7.00;;;13.60;80.00;;;;;;5115468;27;20051;-52
2021/11/12 07:45:31;;;;;;;;;;;13.50;80.00;;;;;;5142698;27;20046;-57
2021/11/12 07:47:57;;;;;;;8.68;7.28;;;13.50;79.90;;;;;;5150698;27;19919;-58
2021/11/12 07:50:23;;;;;;;8.15;6.30;;;13.60;80.20;;;;;;5125822;27;20367;-58
2021/11/12 07:52:48;;;;;;;8.73;6.90;;;13.50;80.10;;;;;;5154247;27;20038;-54
2021/11/12 07:55:14;;;;;;;8.13;6.47;;;13.50;80.10;;;;;;5153974;27;20038;-56
2021/11/12 07:57:40;;;;;;;7.80;6.35;;;13.50;80.00;;;;;;5154190;27;20439;-56
2021/11/12 08:00:08;;;;;;;7.88;6.50;;;13.60;80.10;;;;;;5153724;27;20042;-59
2021/11/12 08:02:34;;;;;;;9.63;7.68;;;13.50;80.00;;;;;;5126555;28;20080;-63
2021/11/12 08:05:07;;;;;;;8.82;7.28;;;13.50;80.10;;;;;;5133165;28;20424;-61
2021/11/12 08:07:33;;;;;;;8.93;7.35;;;13.50;80.00;;;;;;5135432;27;20062;-55
2021/11/12 08:10:01;;;;;;;7.45;6.30;;;13.50;80.00;;;;;;5137482;27;20047;-56
2021/11/12 08:13:16;;;;;;;7.90;6.53;;;13.50;80.00;;;;;;5138079;27;20630;-58
2021/11/12 08:15:30;;;;;;;7.90;6.60;;;13.60;80.10;;;;;;5125455;27;20053;-76
2021/11/12 08:20:51;;;;;;;8.43;6.90;;;13.60;80.10;;;;;;5137022;27;20053;-60
2021/11/12 08:23:24;;;;;;;8.75;6.55;;;13.60;80.10;;;;;;5137820;27;20084;-68
2021/11/12 08:26:07;;;;;;;10.73;7.20;;;13.50;80.00;;;;;;5117912;27;20126;-72
2021/11/12 08:33:48;;;;;;;7.85;6.50;;;13.50;80.00;;;;;;5137576;27;20166;-75
2021/11/12 08:36:34;;;;;;;8.75;6.22;;;13.50;80.00;;;;;;5136703;27;20085;-67
2021/11/12 08:41:37;;;;;;;8.13;6.55;;;13.50;79.80;;;;;;5136294;27;19919;-73
2021/11/12 08:44:28;;;;;;;8.18;7.07;;;13.50;80.10;;;;;;5137823;27;20043;-72
2021/11/12 08:47:07;;;;;;;6.82;6.00;;;13.50;80.00;;;;;;5136306;27;20073;-67
2021/11/12 08:49:35;;;;;;;7.55;6.53;;;13.60;80.10;;;;;;5136308;27;20111;-58
2021/11/12 08:52:03;;;;;;;7.72;6.75;;;13.50;80.00;;;;;;5117973;27;20051;-63
2021/11/12 08:54:42;;;;;;;8.18;6.20;;;13.50;80.00;;;;;;5137125;27;20498;-69
2021/11/12 08:57:11;;;;;;;8.13;5.70;;;13.50;80.00;;;;;;5136443;27;20099;-67
2021/11/12 08:59:40;;;;;;;8.35;6.50;;;13.50;80.00;;;;;;5136516;27;20373;-71
2021/11/12 09:02:08;;;;;;;8.98;6.57;;;13.50;80.00;;;;;;5136339;27;20094;-59
2021/11/12 09:04:35;;;;;;;6.75;5.90;;;13.50;80.00;;;;;;5136081;27;20047;-55
2021/11/12 09:07:01;;;;;;;8.35;6.13;;;13.50;80.00;;;;;;5137308;27;20529;-57
2021/11/12 09:09:27;;;;;;;7.90;5.95;;;13.40;79.90;;;;;;5117483;27;20100;-66
2021/11/12 09:11:54;;;;;;;6.55;5.85;;;13.50;80.60;;;;;;5117726;27;20383;-70
2021/11/12 09:14:22;;;;;;;8.32;6.70;;;13.50;79.90;;;;;;5135805;27;20069;-76
2021/11/12 09:16:48;;;;;;;9.27;7.15;;;13.60;80.00;;;;;;5137416;27;20445;-62
2021/11/12 09:19:14;;;;;;;7.63;6.40;;;13.50;79.90;;;;;;5134584;27;20398;-68
2021/11/12 09:21:42;;;;;;;7.43;6.07;;;13.60;80.00;;;;;;5135748;27;20043;-57
2021/11/12 09:24:09;;;;;;;7.05;5.90;;;13.50;79.90;;;;;;5135758;27;20410;-57
2021/11/12 09:26:36;;;;;;;7.95;6.40;;;13.50;79.90;;;;;;5137031;27;20038;-61
2021/11/12 09:29:04;;;;;;;6.70;5.82;;;13.60;80.00;;;;;;5135636;27;20405;-60
2021/11/12 09:31:29;;;;;;;7.22;6.43;;;13.60;80.00;;;;;;5135697;27;20483;-65
2021/11/12 09:33:57;;;;;;;7.57;6.32;;;13.50;79.90;;;;;;5135127;27;20184;-65
2021/11/12 09:36:23;;;;;;;8.05;6.32;;;13.60;79.90;;;;;;5135092;27;20047;-59
2021/11/12 09:38:49;;;;;;;6.88;6.13;;;13.60;79.90;;;;;;5136415;27;20538;-61
2021/11/12 09:41:14;;;;;;;8.15;6.05;;;13.60;79.90;;;;;;5135599;27;20164;-56
2021/11/12 09:43:40;;;;;;;6.72;5.97;;;13.60;79.90;;;;;;5135442;27;20035;-53
2021/11/12 09:46:07;;;;;;;7.72;6.80;;;13.60;79.90;;;;;;5117020;27;20107;-57
2021/11/12 09:48:33;;;;;;;7.07;6.05;;;13.60;79.90;;;;;;5136157;27;20039;-56
2021/11/12 09:50:59;;;;;;;7.15;6.03;;;13.60;79.90;;;;;;5116122;27;20121;-56
2021/11/12 09:53:25;;;;;;;7.05;5.93;;;13.60;79.90;;;;;;5135290;27;20115;-56
2021/11/12 09:55:54;;;;;;;7.63;5.90;;;13.60;79.90;;;;;;5135287;27;20051;-55
2021/11/12 09:58:21;;;;;;;7.63;5.65;;;13.50;79.80;;;;;;5136151;27;20092;-55
2021/11/12 10:00:53;;;;;;;7.40;6.63;;;13.60;79.80;;;;;;5135322;27;20050;-57
2021/11/12 10:03:19;;;;;;;7.15;5.47;;;13.60;79.80;;;;;;5117480;27;20043;-56
2021/11/12 10:05:48;;;;;;;7.75;5.50;;;13.60;79.80;;;;;;5134533;27;20479;-56
2021/11/12 10:08:38;;;;;;;8.02;6.53;;;13.60;79.80;;;;;;5134620;27;20046;-56
2021/11/12 10:11:09;;;;;;;7.32;5.78;;;13.60;79.80;;;;;;5117447;27;20131;-57
2021/11/12 10:13:38;;;;;;;6.93;5.63;;;13.60;79.90;;;;;;5134443;27;20055;-56
2021/11/12 10:19:17;;;;;;;8.50;6.43;;;13.60;79.90;;;;;;5134747;27;20077;-58
2021/11/12 10:21:46;;;;;;;7.63;5.72;;;13.60;79.90;;;;;;5099978;27;20073;-59
2021/11/12 10:24:15;;;;;;;7.63;5.97;;;13.60;79.90;;;;;;5134022;27;20038;-57
2021/11/12 10:27:05;;;;;;;7.80;5.30;;;13.60;79.90;;;;;;5134395;27;20054;-55
2021/11/12 10:29:36;;;;;;;6.85;5.50;;;13.60;79.90;;;;;;5120021;27;20091;-58
2021/11/12 10:32:08;;;;;;;7.93;5.82;;;13.50;79.80;;;;;;5149025;27;20042;-56
2021/11/12 10:34:37;;;;;;;7.20;5.82;;;13.50;79.80;;;;;;5154906;27;20091;-57
2021/11/12 10:37:03;;;;;;;6.15;4.88;;;13.50;79.90;;;;;;5155175;27;20374;-61
2021/11/12 10:39:50;;;;;;;6.53;5.25;;;13.60;80.00;;;;;;5154791;27;20043;-55
2021/11/12 10:42:25;;;;;;;6.50;5.70;;;13.60;79.90;;;;;;5140894;27;20044;-57
2021/11/12 10:45:31;;;;;;;7.07;5.68;;;13.60;80.00;;;;;;5134230;27;20058;-57
2021/11/12 10:47:57;;;;;;;6.90;5.85;;;13.60;80.00;;;;;;5133687;27;20112;-57
2021/11/12 10:50:25;;;;;;;6.18;5.35;;;13.50;80.00;;;;;;5134304;27;20397;-57
2021/11/12 10:52:52;;;;;;;6.35;4.88;;;13.50;80.00;;;;;;5135394;27;20049;-55
2021/11/12 10:55:23;;;;;;;6.10;5.35;;;13.50;80.00;;;;;;5133550;27;20082;-56
2021/11/12 10:57:48;;;;;;;7.45;5.88;;;13.60;80.00;;;;;;5134088;27;20422;-57
2021/11/12 11:00:24;;;;;;;7.07;5.32;;;13.60;80.10;;;;;;5133866;27;20073;-54
2021/11/12 11:02:51;;;;;;;6.18;5.38;;;13.60;80.10;;;;;;5135264;27;20030;-69
2021/11/12 11:05:19;;;;;;;6.53;5.30;;;13.50;80.00;;;;;;5134149;27;20047;-63
2021/11/12 11:07:52;;;;;;;5.68;5.00;;;13.50;80.00;;;;;;5133974;27;20039;-67
2021/11/12 11:10:23;;;;;;;5.30;4.78;;;13.60;80.10;;;;;;5133376;27;20542;-70
2021/11/12 11:12:49;;;;;;;5.28;4.75;;;13.50;80.00;;;;;;5134582;27;20043;-63
2021/11/12 11:15:28;;;;;;;7.32;5.32;;;13.50;80.00;;;;;;5133879;27;20048;-62
2021/11/12 11:18:22;;;;;;;6.80;6.10;;;13.60;80.10;;;;;;5130329;27;20807;-72
2021/11/12 11:20:56;;;;;;;6.28;5.00;;;13.50;80.00;;;;;;5130127;27;20057;-56
2021/11/12 11:23:22;;;;;;;6.22;5.35;;;13.50;80.00;;;;;;5111133;27;20486;-59
2021/11/12 11:25:53;;;;;;;7.20;5.88;;;13.50;80.00;;;;;;5130767;27;20036;-57
2021/11/12 11:28:19;;;;;;;5.45;4.88;;;13.60;80.10;;;;;;5129821;27;20051;-60
2021/11/12 11:30:46;;;;;;;6.03;5.43;;;13.50;80.00;;;;;;5129860;27;20560;-69
2021/11/12 11:33:14;;;;;;;5.28;4.60;;;13.60;80.00;;;;;;5130250;28;20053;-70
2021/11/12 11:35:42;;;;;;;6.60;5.25;;;13.60;80.00;;;;;;5134296;27;20498;-72
2021/11/12 11:38:08;;;;;;;5.78;4.80;;;13.60;80.10;;;;;;5133523;28;20410;-65
2021/11/12 11:40:37;;;;;;;5.45;4.90;;;13.50;80.00;;;;;;5114588;28;20555;-69
2021/11/12 11:43:05;;;;;;;5.53;4.68;;;13.60;80.00;;;;;;5117976;27;20423;-67
2021/11/12 11:45:30;;;;;;;5.45;4.95;;;13.60;80.00;;;;;;5138815;27;20450;-69
2021/11/12 11:47:56;;;;;;;6.28;5.03;;;13.60;80.00;;;;;;5137728;27;20043;-60
2021/11/12 11:50:28;;;;;;;5.05;4.50;;;13.60;80.00;;;;;;5137804;27;20051;-73
2021/11/12 11:53:14;;;;;;;6.60;5.63;;;13.60;80.00;;;;;;5137649;27;20122;-71
2021/11/12 11:55:40;;;;;;;5.90;5.00;;;13.60;80.10;;;;;;5137982;27;20143;-68
2021/11/12 11:58:37;;;;;;;5.30;4.72;;;13.60;80.10;;;;;;5136450;27;20083;-64
2021/11/12 12:01:49;;;;;;;5.57;4.70;;;13.60;80.10;;;;;;5136822;27;20035;-59
2021/11/12 12:04:15;;;;;;;6.75;5.25;;;13.60;80.10;;;;;;5033127;28;20057;-61
2021/11/12 12:06:43;;;;;;;6.13;5.05;;;13.50;80.10;;;;;;5038291;28;20198;-69
2021/11/12 12:09:14;;;;;;;5.45;4.93;;;13.60;80.10;;;;;;5053421;28;20082;-57
2021/11/12 12:11:40;;;;;;;5.50;4.95;;;13.60;80.10;;;;;;5053351;28;20045;-58
2021/11/12 12:14:17;;;;;;;4.93;4.40;;;13.50;80.10;;;;;;5052495;28;20057;-58
2021/11/12 12:16:46;;;;;;;6.28;5.05;;;13.60;80.10;;;;;;5049870;28;20146;-67
2021/11/12 13:25:10;;;;;;;15.85;11.27;;;13.40;79.10;;;;;;5072213;28;20091;-63
2021/11/12 13:27:37;;;;;;;15.02;11.18;;;13.40;79.10;;;;;;5072103;28;20127;-65
2021/11/12 13:30:06;;;;;;;16.10;11.10;;;13.40;79.10;;;;;;5055164;28;20060;-65
2021/11/12 13:32:39;;;;;;;14.15;11.40;;;13.40;79.10;;;;;;5072661;28;20138;-66
2021/11/12 13:35:05;;;;;;;14.50;10.75;;;13.40;79.10;;;;;;5071878;28;20048;-62
2021/11/12 13:37:31;;;;;;;14.25;11.15;;;13.40;79.20;;;;;;5071985;28;20416;-63
2021/11/12 13:40:06;;;;;;;14.15;11.43;;;13.50;79.20;;;;;;5071934;28;20063;-63
2021/11/12 13:42:39;;;;;;;14.93;11.67;;;13.50;79.30;;;;;;5055749;28;20052;-63
2021/11/12 13:45:19;;;;;;;13.70;10.40;;;13.50;79.30;;;;;;5071915;28;20082;-65
2021/11/12 13:47:46;;;;;;;17.33;10.93;;;13.50;79.30;;;;;;5071471;28;20041;-64
2021/11/12 13:50:14;;;;;;;14.68;11.52;;;13.50;79.40;;;;;;5071499;28;20072;-66
2021/11/12 13:52:42;;;;;;;12.52;10.75;;;13.50;79.40;;;;;;5134698;27;20059;-65
2021/11/12 13:55:16;;;;;;;13.43;9.88;;;13.50;79.40;;;;;;5139007;27;20517;-61
2021/11/12 13:57:57;;;;;;;14.20;10.57;;;13.50;79.40;;;;;;5155790;27;20042;-66
2021/11/12 14:00:26;;;;;;;13.73;10.30;;;13.50;79.50;;;;;;5155677;27;20381;-64
2021/11/12 14:03:07;;;;;;;12.93;10.50;;;13.50;79.50;;;;;;5155515;27;20438;-61
2021/11/12 14:05:58;;;;;;;14.93;10.25;;;13.50;79.50;;;;;;5154889;27;20043;-63
2021/11/12 14:08:33;;;;;;;12.45;9.85;;;13.50;79.50;;;;;;5154610;27;20451;-62
2021/11/12 14:11:01;;;;;;;12.43;10.23;;;13.50;79.50;;;;;;5131492;27;20038;-61
2021/11/12 14:13:42;;;;;;;14.57;10.50;;;13.50;79.50;;;;;;5130751;27;20066;-62
2021/11/12 14:24:09;;;;;;;13.63;10.05;;;13.50;79.50;;;;;;5129700;27;20114;-65
2021/11/12 14:31:52;;;;;;;12.93;11.20;;;13.50;79.60;;;;;;5151293;27;20382;-61
2021/11/12 14:37:14;;;;;;;12.05;10.60;;;13.50;79.50;;;;;;5150930;27;20055;-60
2021/11/12 14:40:00;;;;;;;12.18;10.05;;;13.50;79.50;;;;;;5132984;27;20472;-60
2021/11/12 14:50:26;;;;;;;13.35;9.95;;;13.60;79.60;;;;;;5112004;27;20090;-65
2021/11/12 14:53:48;;;;;;;13.88;10.93;;;13.50;79.50;;;;;;5129699;27;20039;-67
2021/11/12 14:56:22;;;;;;;12.73;9.85;;;13.60;79.60;;;;;;5046472;28;20481;-67
2021/11/12 14:58:55;;;;;;;13.60;10.70;;;13.50;79.50;;;;;;5046259;28;20107;-67
2021/11/12 15:01:26;;;;;;;11.75;9.68;;;13.40;79.40;;;;;;5029439;28;20060;-65
2021/11/12 15:03:52;;;;;;;14.30;10.52;;;13.50;79.40;;;;;;5044684;28;20057;-66
2021/11/12 15:06:20;;;;;;;15.63;10.00;;;13.50;79.40;;;;;;5026086;28;20076;-68
2021/11/12 15:08:50;;;;;;;13.07;9.77;;;13.60;79.50;;;;;;5017738;28;20139;-68
2021/11/12 15:11:19;;;;;;;14.43;10.07;;;13.50;79.50;;;;;;5046421;28;20033;-68
2021/11/12 15:13:47;;;;;;;12.57;10.55;;;13.60;79.50;;;;;;5045596;28;20052;-63
2021/11/12 15:16:19;;;;;;;14.65;11.13;;;13.60;79.50;;;;;;5041317;28;20053;-65
2021/11/12 15:18:45;;;;;;;14.25;10.77;;;13.60;79.50;;;;;;5026682;28;20052;-64
2021/11/12 15:21:33;;;;;;;14.45;10.85;;;13.50;79.40;;;;;;5037825;28;20064;-59
2021/11/12 15:34:07;;;;;;;13.88;10.80;;;13.60;79.40;;;;;;5129551;27;20151;-64
2021/11/12 15:36:34;;;;;;;13.05;9.95;;;13.60;79.30;;;;;;5150267;27;20446;-63
2021/11/12 15:39:11;;;;;;;13.73;11.07;;;13.50;79.30;;;;;;5149564;27;20043;-60
2021/11/12 15:44:25;;;;;;;14.32;10.90;;;13.60;79.40;;;;;;5150319;27;20051;-63
2021/11/12 15:46:53;;;;;;;13.38;10.30;;;13.60;79.30;;;;;;5150507;27;20054;-63
2021/11/12 15:49:23;;;;;;;12.93;9.77;;;13.50;79.20;;;;;;5150103;27;20104;-66
2021/11/12 15:51:58;;;;;;;12.68;9.77;;;13.60;79.30;;;;;;5149832;27;20039;-64
2021/11/12 16:07:16;;;;;;;14.80;11.55;;;13.60;79.30;;;;;;5150112;27;20053;-64
2021/11/12 16:14:59;;;;;;;14.65;10.63;;;13.60;79.30;;;;;;5149565;27;20094;-60
2021/11/12 16:20:15;;;;;;;15.27;11.75;;;13.60;79.30;;;;;;5149701;27;20042;-62
2021/11/12 16:23:03;;;;;;;15.85;11.18;;;13.60;79.30;;;;;;5149816;27;20929;-61
2021/11/12 16:25:29;;;;;;;14.60;11.13;;;13.60;79.30;;;;;;5149165;27;20553;-61
2021/11/12 16:27:59;;;;;;;14.15;10.60;;;13.50;79.30;;;;;;5131896;27;20090;-65
2021/11/12 16:30:30;;;;;;;12.93;10.13;;;13.60;79.30;;;;;;5153828;27;20089;-62
2021/11/12 16:32:56;;;;;;;13.27;10.73;;;13.60;79.30;;;;;;5153381;27;20533;-60
2021/11/12 16:35:25;;;;;;;13.95;11.10;;;13.50;79.30;;;;;;5153097;27;20050;-59
2021/11/12 16:40:41;;;;;;;13.40;10.75;;;13.60;79.30;;;;;;5088064;28;20055;-62
2021/11/12 16:48:11;;;;;;;16.13;11.30;;;13.60;79.30;;;;;;5086091;28;20110;-63
2021/11/12 16:53:39;;;;;;;13.60;10.60;;;13.60;79.30;;;;;;5086019;28;20043;-66
2021/11/12 17:06:47;;;;;;;13.93;10.50;;;13.50;79.90;;;;;;5088208;28;20055;-58
2021/11/12 17:09:32;;;;;;;14.63;11.20;;;13.50;79.30;;;;;;5070438;28;20046;-61
2021/11/12 17:15:05;;;;;;;14.93;11.30;;;13.50;79.30;;;;;;5088180;28;20060;-59
2021/11/12 17:18:27;;;;;;;14.02;10.65;;;13.50;79.30;;;;;;5088461;27;20209;-60
2021/11/12 17:47:11;;;;;;;12.65;10.65;;;13.50;79.30;;;;;;5131640;27;20039;-59
2021/11/12 18:03:33;;;;;;;13.68;10.20;;;13.50;79.40;;;;;;5130557;27;20079;-64
2021/11/12 21:46:22;;;;;;;10.75;7.90;;;13.40;79.60;;;;;;5156435;27;20058;-63
2021/11/12 21:48:17;;;;;;;7.97;6.50;;;13.40;79.60;;;;;;5144449;27;20099;-61
2021/11/12 21:50:44;;;;;;;9.05;7.55;;;13.40;79.60;;;;;;5155968;27;20106;-60
2021/11/12 21:53:09;;;;;;;9.77;7.88;;;13.40;79.60;;;;;;5153842;27;20092;-63
2021/11/12 21:55:35;;;;;;;8.93;7.15;;;13.40;79.60;;;;;;5152443;27;20046;-61
2021/11/12 21:58:01;;;;;;;8.93;7.43;;;13.40;79.60;;;;;;5153767;27;20055;-64
2021/11/12 22:00:28;;;;;;;8.90;6.55;;;13.40;79.60;;;;;;5154993;27;20039;-61
2021/11/12 22:02:55;;;;;;;7.95;7.10;;;13.40;79.60;;;;;;5137310;27;20073;-62
2021/11/12 22:05:21;;;;;;;9.10;7.07;;;13.40;79.60;;;;;;5134799;27;20466;-61
2021/11/12 22:07:46;;;;;;;9.98;7.70;;;13.40;79.60;;;;;;5154039;27;20129;-61
2021/11/12 22:10:12;;;;;;;9.35;7.00;;;13.40;79.60;;;;;;5150882;27;20123;-62
2021/11/12 22:12:38;;;;;;;9.82;7.30;;;13.40;79.60;;;;;;5135081;27;20071;-64
2021/11/12 22:15:08;;;;;;;7.80;6.85;;;13.40;79.60;;;;;;5135007;27;20092;-61
2021/11/12 22:17:34;;;;;;;9.80;8.02;;;13.40;79.60;;;;;;5134554;27;20097;-61
2021/11/12 22:20:05;;;;;;;7.90;6.57;;;13.40;79.60;;;;;;5133927;27;20133;-59
2021/11/12 22:22:31;;;;;;;8.15;6.88;;;13.50;80.30;;;;;;5144948;27;20035;-61
2021/11/12 22:24:57;;;;;;;10.32;7.68;;;13.40;79.60;;;;;;5155056;27;20043;-61
2021/11/12 22:27:23;;;;;;;8.05;6.80;;;13.40;79.60;;;;;;5138263;27;20035;-61
2021/11/12 22:29:49;;;;;;;9.32;7.45;;;13.40;79.60;;;;;;5133924;27;20039;-62
2021/11/12 22:32:14;;;;;;;8.73;6.95;;;13.50;79.60;;;;;;5145287;27;20450;-60
2021/11/12 22:34:40;;;;;;;8.18;6.55;;;13.50;79.60;;;;;;5154737;27;20065;-60
2021/11/12 22:37:06;;;;;;;7.95;6.45;;;13.40;79.60;;;;;;5138791;27;20062;-61
2021/11/12 22:39:31;;;;;;;8.02;7.05;;;13.40;79.60;;;;;;5134281;27;20746;-61
2021/11/12 22:41:57;;;;;;;8.90;7.85;;;13.50;79.60;;;;;;5136442;27;20035;-62
2021/11/12 22:44:23;;;;;;;8.90;6.75;;;13.40;79.60;;;;;;5133502;27;20479;-61
2021/11/12 22:46:49;;;;;;;9.77;6.72;;;13.40;79.60;;;;;;5115164;27;20035;-62
2021/11/12 22:49:15;;;;;;;8.82;7.45;;;13.40;79.60;;;;;;5133789;27;20049;-62
2021/11/12 22:51:41;;;;;;;7.85;6.47;;;13.40;79.60;;;;;;5148657;27;20509;-62
2021/11/12 22:54:07;;;;;;;7.97;6.30;;;13.40;79.60;;;;;;5128892;27;20051;-62
2021/11/12 22:56:34;;;;;;;8.57;7.25;;;13.40;79.60;;;;;;5133806;27;20035;-60
2021/11/12 22:58:59;;;;;;;7.82;6.47;;;13.40;79.60;;;;;;5134997;27;20172;-62